Whittaker, West Virginia
Current Conditions -  °F | °C
As of 5:42 AM on Wednesday 22 Oct 2014 (Local Time) from KCRW Reporting Station
Overcast Overcast  
Wind Chill: 42°   Ceiling: 900
Heat Index: 45°   Visibility: 10mi
Dew Point: 42°   Wind: 6mph
Humidity: 90%   Direction: NA
Pressure: 30.12"   Gusts: NA
Location:  38.174°N, 81.3902°W
Report Text: KCRW 220942Z VRB05KT 10SM OVC009 07/06 A3012 RMK AO2 T00720056
Loading
Personal Weather Stations






























Interactive Weather Map
Tropical Storm Tracking
New forecast layout! Learn more

10-Day Weather Forecast

Advertisements
Track Severe Weather on mobile